Címlap Időjárás Ferihegy, Budapest Airport időjárás előrejelzés – METAR, TAF BUD/LHBP

Időjárás Ferihegy, Budapest Airport időjárás előrejelzés – METAR, TAF BUD/LHBP

Aktuális szöveges időjárásjelentés / METAR BUD/LHBP, és 24 órás szöveges időjárás-előrejelzés / TAF BUD/LHBP Budapest Liszt Ferenc Nemzetközi Repülőtér

Available data for LHBP from the past 6 hours
Metar
LHBP 201700Z 07010KT 030V090 6000 -DZ SCT005 OVC025 04/03 Q1013 NOSIG

17:00 UTC

Wind: 70° 10kt

Visibility: 6000 m

Sky: SCT 500 ft

Temp: 4 deg C / 39.2 deg F

Dewpoint: 3 deg C / 37.4 deg F

Pressure: 1013 hPa

TAF
TAF LHBP 201115Z 2012/2112 07014G26KT 5000 -RA SCT012 OVC025 TEMPO 2012/2017 2500 RA BKN007 OVC015 BECMG 2017/2020 07010KT 3000 -DZ BR BKN012 OVC020 TEMPO 2021/2104 1300 DZ BCFG BR BKN004 OVC010 BECMG 2107/2109 VRB03KT 5000 -RA

Szélirány és erősség Ferihegy és környéke

Európa műholdkép


6 napos időjárás előrejelzés – Budapest Ferihegy Airport


Data is taken from the National Weather Service at NOAA. Satelite image by AustroControl & Meteo-Mc. Only for spotters, do not use for real flight!

A METAR és a TAF adatok a National Weather Service adatbázisából származnak. Az oldalon közölt adatok tájékoztató jellegűek, az oldal üzemeltetője nem vállal felelősséget ezek esetleges pontatlanságáért. Ne használd valós repüléshez!

Néhány hasznos infó, mielőtt repülőre szállsz